ESOK

Karlstad Airport

Karlstad, Sweden
METAR ESOK 181350Z 29004KT CAVOK M05/M07 Q1007
Observed Flight Rules
Jan-18 @ 13:50 UTC (35 minutes ago) Visual Flight Rules
Wind Visibility Clouds
290° at 4 knots 10,000+ meters
  • Clear skies
Temperatures Readings
Current -5°C / 23°F
Dewpoint -7°C / 19°F
Humidity 86%
Altimeter 29.73" Hg
Pressure 1006.92 hPa
Elevation 107
METAR ESOK 181350Z 29004KT CAVOK M05/M07 Q1007
Observed Flight Rules
Jan-18 @ 13:50 UTC
(35 minutes ago)
VFR
Wind Visibility
290° at 4 knots 10,000+ meters
Clouds
  • Clear skies
Temperature Dewpoint
-5°C / 23°F -7°C / 19°F
Humidity Altimeter Pressure
86% 29.73" Hg 1006.92 hPa